sensor_id;sensor_type;location;lat;lon;timestamp;temperature;humidity
13389;DHT22;6764;53.250;10.410;2023-05-16T00:00:24;12.70;99.90
13389;DHT22;6764;53.250;10.410;2023-05-16T00:02:50;12.70;99.90
13389;DHT22;6764;53.250;10.410;2023-05-16T00:05:16;12.70;99.90
13389;DHT22;6764;53.250;10.410;2023-05-16T00:07:43;12.80;99.90
13389;DHT22;6764;53.250;10.410;2023-05-16T00:10:09;12.80;99.90
13389;DHT22;6764;53.250;10.410;2023-05-16T00:12:35;12.70;99.90
13389;DHT22;6764;53.250;10.410;2023-05-16T00:15:02;12.70;99.90
13389;DHT22;6764;53.250;10.410;2023-05-16T00:17:29;12.80;99.90
13389;DHT22;6764;53.250;10.410;2023-05-16T00:19:55;12.80;99.90
13389;DHT22;6764;53.250;10.410;2023-05-16T00:22:26;12.90;99.90
13389;DHT22;6764;53.250;10.410;2023-05-16T00:24:51;12.90;99.90
13389;DHT22;6764;53.250;10.410;2023-05-16T00:27:17;13.00;99.90
13389;DHT22;6764;53.250;10.410;2023-05-16T00:29:43;13.00;99.90
13389;DHT22;6764;53.250;10.410;2023-05-16T00:32:08;13.00;99.90
13389;DHT22;6764;53.250;10.410;2023-05-16T00:34:34;13.10;99.90
13389;DHT22;6764;53.250;10.410;2023-05-16T00:37:00;13.00;99.90
13389;DHT22;6764;53.250;10.410;2023-05-16T00:39:26;13.00;99.90
13389;DHT22;6764;53.250;10.410;2023-05-16T00:41:52;13.00;99.90
13389;DHT22;6764;53.250;10.410;2023-05-16T00:44:17;13.00;99.90
13389;DHT22;6764;53.250;10.410;2023-05-16T00:46:43;12.90;99.90
13389;DHT22;6764;53.250;10.410;2023-05-16T00:49:09;12.90;99.90
13389;DHT22;6764;53.250;10.410;2023-05-16T00:51:36;13.00;99.90
13389;DHT22;6764;53.250;10.410;2023-05-16T00:54:03;13.00;99.90
13389;DHT22;6764;53.250;10.410;2023-05-16T00:56:29;13.10;99.90
13389;DHT22;6764;53.250;10.410;2023-05-16T00:58:55;13.10;99.90
13389;DHT22;6764;53.250;10.410;2023-05-16T01:01:22;13.20;99.90
13389;DHT22;6764;53.250;10.410;2023-05-16T01:03:49;13.20;99.90
13389;DHT22;6764;53.250;10.410;2023-05-16T01:06:15;13.10;99.90
13389;DHT22;6764;53.250;10.410;2023-05-16T01:08:40;13.10;99.90
13389;DHT22;6764;53.250;10.410;2023-05-16T01:19:40;13.00;99.90
13389;DHT22;6764;53.250;10.410;2023-05-16T01:28:17;13.10;99.90
13389;DHT22;6764;53.250;10.410;2023-05-16T01:30:43;13.00;99.90
13389;DHT22;6764;53.250;10.410;2023-05-16T01:33:09;13.00;99.90
13389;DHT22;6764;53.250;10.410;2023-05-16T01:35:42;13.20;99.90
13389;DHT22;6764;53.250;10.410;2023-05-16T01:43:47;13.20;99.90
13389;DHT22;6764;53.250;10.410;2023-05-16T01:46:14;13.10;99.90
13389;DHT22;6764;53.250;10.410;2023-05-16T01:48:57;13.10;99.90
13389;DHT22;6764;53.250;10.410;2023-05-16T01:51:27;13.10;99.90
13389;DHT22;6764;53.250;10.410;2023-05-16T01:53:58;13.10;99.90
13389;DHT22;6764;53.250;10.410;2023-05-16T01:56:27;13.10;99.90
13389;DHT22;6764;53.250;10.410;2023-05-16T01:58:53;13.20;99.90
13389;DHT22;6764;53.250;10.410;2023-05-16T02:01:19;13.20;99.90
13389;DHT22;6764;53.250;10.410;2023-05-16T02:03:45;13.10;99.90
13389;DHT22;6764;53.250;10.410;2023-05-16T02:06:10;13.10;99.90
13389;DHT22;6764;53.250;10.410;2023-05-16T02:08:36;13.20;99.90
13389;DHT22;6764;53.250;10.410;2023-05-16T02:11:02;13.20;99.90
13389;DHT22;6764;53.250;10.410;2023-05-16T02:13:27;13.20;99.90
13389;DHT22;6764;53.250;10.410;2023-05-16T02:15:53;13.30;99.90
13389;DHT22;6764;53.250;10.410;2023-05-16T02:18:18;13.30;99.90
13389;DHT22;6764;53.250;10.410;2023-05-16T02:20:44;13.40;99.90
13389;DHT22;6764;53.250;10.410;2023-05-16T02:23:10;13.30;99.90
13389;DHT22;6764;53.250;10.410;2023-05-16T02:25:35;13.40;99.90
13389;DHT22;6764;53.250;10.410;2023-05-16T02:28:01;13.30;99.90
13389;DHT22;6764;53.250;10.410;2023-05-16T02:30:27;13.40;99.90
13389;DHT22;6764;53.250;10.410;2023-05-16T02:32:52;13.40;99.90
13389;DHT22;6764;53.250;10.410;2023-05-16T02:35:18;13.40;99.90
13389;DHT22;6764;53.250;10.410;2023-05-16T02:37:44;13.30;99.90
13389;DHT22;6764;53.250;10.410;2023-05-16T02:40:10;13.20;99.90
13389;DHT22;6764;53.250;10.410;2023-05-16T02:42:35;13.20;99.90
13389;DHT22;6764;53.250;10.410;2023-05-16T02:45:01;13.20;99.90
13389;DHT22;6764;53.250;10.410;2023-05-16T02:47:27;13.20;99.90
13389;DHT22;6764;53.250;10.410;2023-05-16T02:49:53;13.10;99.90
13389;DHT22;6764;53.250;10.410;2023-05-16T02:52:19;13.10;99.90
13389;DHT22;6764;53.250;10.410;2023-05-16T02:54:44;13.00;99.90
13389;DHT22;6764;53.250;10.410;2023-05-16T02:57:10;13.00;99.90
13389;DHT22;6764;53.250;10.410;2023-05-16T02:59:37;12.90;99.90
13389;DHT22;6764;53.250;10.410;2023-05-16T03:02:02;12.90;99.90
13389;DHT22;6764;53.250;10.410;2023-05-16T03:04:28;12.80;99.90
13389;DHT22;6764;53.250;10.410;2023-05-16T03:06:54;12.70;99.90
13389;DHT22;6764;53.250;10.410;2023-05-16T03:09:20;12.60;99.90
13389;DHT22;6764;53.250;10.410;2023-05-16T03:11:46;12.60;99.90
13389;DHT22;6764;53.250;10.410;2023-05-16T03:14:12;12.50;99.90
13389;DHT22;6764;53.250;10.410;2023-05-16T03:16:38;12.60;99.90
13389;DHT22;6764;53.250;10.410;2023-05-16T03:19:05;12.60;99.90
13389;DHT22;6764;53.250;10.410;2023-05-16T03:21:31;12.50;99.90
13389;DHT22;6764;53.250;10.410;2023-05-16T03:23:57;12.60;99.90
13389;DHT22;6764;53.250;10.410;2023-05-16T03:26:25;12.60;99.90
13389;DHT22;6764;53.250;10.410;2023-05-16T03:28:51;12.60;99.90
13389;DHT22;6764;53.250;10.410;2023-05-16T03:31:17;12.60;99.90
13389;DHT22;6764;53.250;10.410;2023-05-16T03:33:43;12.60;99.90
13389;DHT22;6764;53.250;10.410;2023-05-16T03:36:09;12.70;99.90
13389;DHT22;6764;53.250;10.410;2023-05-16T03:38:36;12.70;99.90
13389;DHT22;6764;53.250;10.410;2023-05-16T03:41:01;12.60;99.90
13389;DHT22;6764;53.250;10.410;2023-05-16T03:43:27;12.50;99.90
13389;DHT22;6764;53.250;10.410;2023-05-16T03:45:53;12.60;99.90
13389;DHT22;6764;53.250;10.410;2023-05-16T03:48:18;12.60;99.90
13389;DHT22;6764;53.250;10.410;2023-05-16T03:50:44;12.60;99.90
13389;DHT22;6764;53.250;10.410;2023-05-16T03:53:10;12.60;99.90
13389;DHT22;6764;53.250;10.410;2023-05-16T03:55:36;12.50;99.90
13389;DHT22;6764;53.250;10.410;2023-05-16T03:58:02;12.50;99.90
13389;DHT22;6764;53.250;10.410;2023-05-16T04:00:27;12.60;99.90
13389;DHT22;6764;53.250;10.410;2023-05-16T04:02:53;12.60;99.90
13389;DHT22;6764;53.250;10.410;2023-05-16T04:05:19;12.70;99.90
13389;DHT22;6764;53.250;10.410;2023-05-16T04:07:44;12.70;99.90
13389;DHT22;6764;53.250;10.410;2023-05-16T04:10:11;12.70;99.90
13389;DHT22;6764;53.250;10.410;2023-05-16T04:12:37;12.70;99.90
13389;DHT22;6764;53.250;10.410;2023-05-16T04:15:03;12.70;99.90
13389;DHT22;6764;53.250;10.410;2023-05-16T04:17:29;12.70;99.90
13389;DHT22;6764;53.250;10.410;2023-05-16T04:19:55;12.80;99.90
13389;DHT22;6764;53.250;10.410;2023-05-16T04:22:21;12.80;99.90
13389;DHT22;6764;53.250;10.410;2023-05-16T04:24:50;12.90;99.90
13389;DHT22;6764;53.250;10.410;2023-05-16T04:27:16;12.90;99.90
13389;DHT22;6764;53.250;10.410;2023-05-16T04:29:41;12.90;99.90
13389;DHT22;6764;53.250;10.410;2023-05-16T04:32:07;12.90;99.90
13389;DHT22;6764;53.250;10.410;2023-05-16T04:34:33;12.90;99.90
13389;DHT22;6764;53.250;10.410;2023-05-16T04:37:02;12.90;99.90
13389;DHT22;6764;53.250;10.410;2023-05-16T04:39:29;12.80;99.90
13389;DHT22;6764;53.250;10.410;2023-05-16T04:41:54;12.90;99.90
13389;DHT22;6764;53.250;10.410;2023-05-16T04:44:24;12.90;99.90
13389;DHT22;6764;53.250;10.410;2023-05-16T04:46:49;12.80;99.90
13389;DHT22;6764;53.250;10.410;2023-05-16T04:49:15;12.80;99.90
13389;DHT22;6764;53.250;10.410;2023-05-16T04:51:41;12.70;99.90
13389;DHT22;6764;53.250;10.410;2023-05-16T04:54:07;12.80;99.90
13389;DHT22;6764;53.250;10.410;2023-05-16T04:56:33;12.80;99.90
13389;DHT22;6764;53.250;10.410;2023-05-16T04:58:58;12.70;99.90
13389;DHT22;6764;53.250;10.410;2023-05-16T05:01:24;12.70;99.90
13389;DHT22;6764;53.250;10.410;2023-05-16T05:03:50;12.80;99.90
13389;DHT22;6764;53.250;10.410;2023-05-16T05:06:15;12.80;99.90
13389;DHT22;6764;53.250;10.410;2023-05-16T05:08:41;12.70;99.90
13389;DHT22;6764;53.250;10.410;2023-05-16T05:11:06;12.70;99.90
13389;DHT22;6764;53.250;10.410;2023-05-16T05:13:32;12.60;99.90
13389;DHT22;6764;53.250;10.410;2023-05-16T05:15:57;12.60;99.90
13389;DHT22;6764;53.250;10.410;2023-05-16T05:18:23;12.50;99.90
13389;DHT22;6764;53.250;10.410;2023-05-16T05:20:49;12.50;99.90
13389;DHT22;6764;53.250;10.410;2023-05-16T05:23:15;12.50;99.90
13389;DHT22;6764;53.250;10.410;2023-05-16T05:25:41;12.40;99.90
13389;DHT22;6764;53.250;10.410;2023-05-16T05:28:06;12.40;99.90
13389;DHT22;6764;53.250;10.410;2023-05-16T05:30:32;12.30;99.90
13389;DHT22;6764;53.250;10.410;2023-05-16T05:32:57;12.30;99.90
13389;DHT22;6764;53.250;10.410;2023-05-16T05:35:23;12.50;99.90
13389;DHT22;6764;53.250;10.410;2023-05-16T05:37:49;12.50;99.90
13389;DHT22;6764;53.250;10.410;2023-05-16T05:40:14;12.40;99.90
13389;DHT22;6764;53.250;10.410;2023-05-16T05:42:40;12.50;99.90
13389;DHT22;6764;53.250;10.410;2023-05-16T05:45:06;12.60;99.90
13389;DHT22;6764;53.250;10.410;2023-05-16T05:47:32;12.60;99.90
13389;DHT22;6764;53.250;10.410;2023-05-16T05:49:57;12.70;99.90
13389;DHT22;6764;53.250;10.410;2023-05-16T05:52:23;12.70;99.90
13389;DHT22;6764;53.250;10.410;2023-05-16T05:54:49;12.70;99.90
13389;DHT22;6764;53.250;10.410;2023-05-16T05:57:14;12.70;99.90
13389;DHT22;6764;53.250;10.410;2023-05-16T05:59:40;12.80;99.90
13389;DHT22;6764;53.250;10.410;2023-05-16T06:02:07;12.80;99.90
13389;DHT22;6764;53.250;10.410;2023-05-16T06:04:32;13.00;99.90
13389;DHT22;6764;53.250;10.410;2023-05-16T06:06:58;13.10;99.90
13389;DHT22;6764;53.250;10.410;2023-05-16T06:09:23;13.40;99.90
13389;DHT22;6764;53.250;10.410;2023-05-16T06:11:49;13.50;99.90
13389;DHT22;6764;53.250;10.410;2023-05-16T06:14:15;13.40;99.90
13389;DHT22;6764;53.250;10.410;2023-05-16T06:16:41;13.50;99.90
13389;DHT22;6764;53.250;10.410;2023-05-16T06:19:07;13.70;99.90
13389;DHT22;6764;53.250;10.410;2023-05-16T06:21:32;13.60;99.90
13389;DHT22;6764;53.250;10.410;2023-05-16T06:23:58;13.70;99.90
13389;DHT22;6764;53.250;10.410;2023-05-16T06:26:24;13.40;99.90
13389;DHT22;6764;53.250;10.410;2023-05-16T06:28:49;13.50;99.90
13389;DHT22;6764;53.250;10.410;2023-05-16T06:31:15;13.40;99.90
13389;DHT22;6764;53.250;10.410;2023-05-16T06:33:40;13.50;99.90
13389;DHT22;6764;53.250;10.410;2023-05-16T06:36:06;13.60;99.90
13389;DHT22;6764;53.250;10.410;2023-05-16T06:38:32;13.40;99.90
13389;DHT22;6764;53.250;10.410;2023-05-16T06:40:57;13.50;99.90
13389;DHT22;6764;53.250;10.410;2023-05-16T06:43:23;13.50;99.90
13389;DHT22;6764;53.250;10.410;2023-05-16T06:45:49;13.50;99.90
13389;DHT22;6764;53.250;10.410;2023-05-16T06:48:17;13.90;99.90
13389;DHT22;6764;53.250;10.410;2023-05-16T06:50:49;15.30;98.00
13389;DHT22;6764;53.250;10.410;2023-05-16T06:53:18;16.50;95.20
13389;DHT22;6764;53.250;10.410;2023-05-16T06:55:44;17.40;92.50
13389;DHT22;6764;53.250;10.410;2023-05-16T06:58:10;17.30;91.40
13389;DHT22;6764;53.250;10.410;2023-05-16T07:00:35;17.00;91.10
13389;DHT22;6764;53.250;10.410;2023-05-16T07:03:01;16.70;91.60
13389;DHT22;6764;53.250;10.410;2023-05-16T07:05:28;17.60;90.60
13389;DHT22;6764;53.250;10.410;2023-05-16T07:07:54;18.80;86.40
13389;DHT22;6764;53.250;10.410;2023-05-16T07:10:20;19.90;83.20
13389;DHT22;6764;53.250;10.410;2023-05-16T07:12:46;21.10;77.90
13389;DHT22;6764;53.250;10.410;2023-05-16T07:15:12;20.80;76.50
13389;DHT22;6764;53.250;10.410;2023-05-16T07:17:37;20.40;77.30
13389;DHT22;6764;53.250;10.410;2023-05-16T07:20:03;19.40;79.00
13389;DHT22;6764;53.250;10.410;2023-05-16T07:22:29;18.80;81.80
13389;DHT22;6764;53.250;10.410;2023-05-16T07:24:55;18.30;83.40
13389;DHT22;6764;53.250;10.410;2023-05-16T07:27:25;17.80;85.00
13389;DHT22;6764;53.250;10.410;2023-05-16T07:29:51;17.10;86.80
13389;DHT22;6764;53.250;10.410;2023-05-16T07:32:17;16.60;89.40
13389;DHT22;6764;53.250;10.410;2023-05-16T07:34:42;16.30;89.60
13389;DHT22;6764;53.250;10.410;2023-05-16T07:37:08;16.10;90.00
13389;DHT22;6764;53.250;10.410;2023-05-16T07:39:38;15.90;89.80
13389;DHT22;6764;53.250;10.410;2023-05-16T07:42:05;16.00;90.00
13389;DHT22;6764;53.250;10.410;2023-05-16T07:44:31;16.40;90.10
13389;DHT22;6764;53.250;10.410;2023-05-16T07:46:56;17.30;87.60
13389;DHT22;6764;53.250;10.410;2023-05-16T07:49:22;18.60;83.60
13389;DHT22;6764;53.250;10.410;2023-05-16T07:51:47;19.90;78.40
13389;DHT22;6764;53.250;10.410;2023-05-16T07:54:13;21.30;75.90
13389;DHT22;6764;53.250;10.410;2023-05-16T07:56:39;21.80;72.10
13389;DHT22;6764;53.250;10.410;2023-05-16T07:59:05;21.80;72.00
13389;DHT22;6764;53.250;10.410;2023-05-16T08:01:30;22.00;69.90
13389;DHT22;6764;53.250;10.410;2023-05-16T08:03:56;22.80;67.80
13389;DHT22;6764;53.250;10.410;2023-05-16T08:06:21;22.20;66.00
13389;DHT22;6764;53.250;10.410;2023-05-16T08:08:47;22.60;66.10
13389;DHT22;6764;53.250;10.410;2023-05-16T08:11:13;23.50;64.50
13389;DHT22;6764;53.250;10.410;2023-05-16T08:13:39;22.90;60.40
13389;DHT22;6764;53.250;10.410;2023-05-16T08:16:04;23.20;62.20
13389;DHT22;6764;53.250;10.410;2023-05-16T08:18:30;24.50;57.40
13389;DHT22;6764;53.250;10.410;2023-05-16T08:20:56;24.80;55.90
13389;DHT22;6764;53.250;10.410;2023-05-16T08:23:21;24.70;57.20
13389;DHT22;6764;53.250;10.410;2023-05-16T08:25:47;25.40;55.30
13389;DHT22;6764;53.250;10.410;2023-05-16T08:28:13;24.60;54.80
13389;DHT22;6764;53.250;10.410;2023-05-16T08:30:39;24.30;54.60
13389;DHT22;6764;53.250;10.410;2023-05-16T08:33:05;24.30;55.00
13389;DHT22;6764;53.250;10.410;2023-05-16T08:35:30;24.50;55.90
13389;DHT22;6764;53.250;10.410;2023-05-16T08:37:56;25.30;54.70
13389;DHT22;6764;53.250;10.410;2023-05-16T08:40:25;25.60;53.30
13389;DHT22;6764;53.250;10.410;2023-05-16T08:42:51;26.50;52.40
13389;DHT22;6764;53.250;10.410;2023-05-16T08:45:18;26.90;51.00
13389;DHT22;6764;53.250;10.410;2023-05-16T08:47:44;28.00;49.90
13389;DHT22;6764;53.250;10.410;2023-05-16T08:50:13;28.50;48.70
13389;DHT22;6764;53.250;10.410;2023-05-16T08:52:41;27.90;48.70
13389;DHT22;6764;53.250;10.410;2023-05-16T08:55:08;26.20;49.80
13389;DHT22;6764;53.250;10.410;2023-05-16T08:57:34;26.10;50.60
13389;DHT22;6764;53.250;10.410;2023-05-16T09:00:01;26.90;50.30
13389;DHT22;6764;53.250;10.410;2023-05-16T09:02:42;27.60;47.80
13389;DHT22;6764;53.250;10.410;2023-05-16T09:05:11;28.10;45.50
13389;DHT22;6764;53.250;10.410;2023-05-16T09:07:37;28.10;44.80
13389;DHT22;6764;53.250;10.410;2023-05-16T09:10:04;28.70;43.50
13389;DHT22;6764;53.250;10.410;2023-05-16T09:12:32;28.60;45.20
13389;DHT22;6764;53.250;10.410;2023-05-16T09:14:57;28.60;44.10
13389;DHT22;6764;53.250;10.410;2023-05-16T09:17:24;27.70;44.70
13389;DHT22;6764;53.250;10.410;2023-05-16T09:19:50;28.00;45.70
13389;DHT22;6764;53.250;10.410;2023-05-16T09:22:22;28.00;45.80
13389;DHT22;6764;53.250;10.410;2023-05-16T09:24:48;27.10;46.60
13389;DHT22;6764;53.250;10.410;2023-05-16T09:27:14;26.20;47.70
13389;DHT22;6764;53.250;10.410;2023-05-16T09:29:46;24.30;51.00
13389;DHT22;6764;53.250;10.410;2023-05-16T09:32:15;22.50;54.30
13389;DHT22;6764;53.250;10.410;2023-05-16T09:34:43;21.60;54.40
13389;DHT22;6764;53.250;10.410;2023-05-16T09:37:10;21.50;53.20
13389;DHT22;6764;53.250;10.410;2023-05-16T09:42:05;22.00;51.30
13389;DHT22;6764;53.250;10.410;2023-05-16T09:44:31;21.40;52.40
13389;DHT22;6764;53.250;10.410;2023-05-16T09:46:56;21.00;52.80
13389;DHT22;6764;53.250;10.410;2023-05-16T09:49:22;21.40;53.50
13389;DHT22;6764;53.250;10.410;2023-05-16T09:51:49;21.60;52.70
13389;DHT22;6764;53.250;10.410;2023-05-16T09:54:14;22.50;52.70
13389;DHT22;6764;53.250;10.410;2023-05-16T09:56:49;23.90;51.40
13389;DHT22;6764;53.250;10.410;2023-05-16T09:59:15;25.20;48.70
13389;DHT22;6764;53.250;10.410;2023-05-16T10:01:41;25.70;47.80
13389;DHT22;6764;53.250;10.410;2023-05-16T10:04:08;26.30;47.80
13389;DHT22;6764;53.250;10.410;2023-05-16T10:06:39;27.10;46.20
13389;DHT22;6764;53.250;10.410;2023-05-16T10:09:05;27.30;45.60
13389;DHT22;6764;53.250;10.410;2023-05-16T10:11:31;26.80;46.00
13389;DHT22;6764;53.250;10.410;2023-05-16T10:13:57;26.30;46.50
13389;DHT22;6764;53.250;10.410;2023-05-16T10:16:24;26.00;47.00
13389;DHT22;6764;53.250;10.410;2023-05-16T10:18:50;26.50;47.20
13389;DHT22;6764;53.250;10.410;2023-05-16T10:21:17;25.80;48.60
13389;DHT22;6764;53.250;10.410;2023-05-16T10:23:47;24.50;51.20
13389;DHT22;6764;53.250;10.410;2023-05-16T10:26:16;23.30;56.20
13389;DHT22;6764;53.250;10.410;2023-05-16T10:28:41;22.20;60.50
13389;DHT22;6764;53.250;10.410;2023-05-16T10:31:09;21.50;60.40
13389;DHT22;6764;53.250;10.410;2023-05-16T10:33:35;21.60;56.40
13389;DHT22;6764;53.250;10.410;2023-05-16T10:36:01;22.10;54.90
13389;DHT22;6764;53.250;10.410;2023-05-16T10:38:30;22.20;54.10
13389;DHT22;6764;53.250;10.410;2023-05-16T10:40:56;21.80;54.20
13389;DHT22;6764;53.250;10.410;2023-05-16T10:43:26;21.10;55.40
13389;DHT22;6764;53.250;10.410;2023-05-16T10:46:02;20.70;56.20
13389;DHT22;6764;53.250;10.410;2023-05-16T10:48:33;20.60;56.10
13389;DHT22;6764;53.250;10.410;2023-05-16T10:50:59;20.80;55.40
13389;DHT22;6764;53.250;10.410;2023-05-16T10:53:34;21.20;55.70
13389;DHT22;6764;53.250;10.410;2023-05-16T11:14:40;19.90;57.40
13389;DHT22;6764;53.250;10.410;2023-05-16T11:17:20;19.30;59.50
13389;DHT22;6764;53.250;10.410;2023-05-16T11:19:57;18.70;60.30
13389;DHT22;6764;53.250;10.410;2023-05-16T11:24:53;18.00;63.20
13389;DHT22;6764;53.250;10.410;2023-05-16T11:27:45;18.40;61.90
13389;DHT22;6764;53.250;10.410;2023-05-16T11:30:16;18.80;61.10
13389;DHT22;6764;53.250;10.410;2023-05-16T11:32:43;19.10;61.00
13389;DHT22;6764;53.250;10.410;2023-05-16T11:35:12;19.40;60.60
13389;DHT22;6764;53.250;10.410;2023-05-16T11:37:38;19.10;59.60
13389;DHT22;6764;53.250;10.410;2023-05-16T11:40:05;18.80;59.50
13389;DHT22;6764;53.250;10.410;2023-05-16T11:42:40;18.80;59.40
13389;DHT22;6764;53.250;10.410;2023-05-16T11:45:07;18.60;57.20
13389;DHT22;6764;53.250;10.410;2023-05-16T11:47:34;18.60;56.80
13389;DHT22;6764;53.250;10.410;2023-05-16T11:50:06;18.50;58.50
13389;DHT22;6764;53.250;10.410;2023-05-16T11:52:34;18.20;60.00
13389;DHT22;6764;53.250;10.410;2023-05-16T11:55:00;17.90;59.80
13389;DHT22;6764;53.250;10.410;2023-05-16T11:57:26;17.70;60.20
13389;DHT22;6764;53.250;10.410;2023-05-16T11:59:52;17.90;62.60
13389;DHT22;6764;53.250;10.410;2023-05-16T12:02:18;17.70;65.20
13389;DHT22;6764;53.250;10.410;2023-05-16T12:04:46;17.60;66.50
13389;DHT22;6764;53.250;10.410;2023-05-16T12:07:14;17.40;67.90
13389;DHT22;6764;53.250;10.410;2023-05-16T12:09:40;17.40;68.00
13389;DHT22;6764;53.250;10.410;2023-05-16T12:12:06;16.90;68.80
13389;DHT22;6764;53.250;10.410;2023-05-16T12:14:32;16.90;69.60
13389;DHT22;6764;53.250;10.410;2023-05-16T12:16:58;17.00;68.20
13389;DHT22;6764;53.250;10.410;2023-05-16T12:19:24;17.10;68.20
13389;DHT22;6764;53.250;10.410;2023-05-16T12:21:53;17.10;66.40
13389;DHT22;6764;53.250;10.410;2023-05-16T12:24:19;17.40;65.60
13389;DHT22;6764;53.250;10.410;2023-05-16T12:26:45;17.50;61.40
13389;DHT22;6764;53.250;10.410;2023-05-16T12:29:11;17.50;61.30
13389;DHT22;6764;53.250;10.410;2023-05-16T12:31:39;17.40;62.40
13389;DHT22;6764;53.250;10.410;2023-05-16T12:34:14;17.30;61.10
13389;DHT22;6764;53.250;10.410;2023-05-16T12:36:40;17.30;61.50
13389;DHT22;6764;53.250;10.410;2023-05-16T12:39:06;17.30;62.20
13389;DHT22;6764;53.250;10.410;2023-05-16T12:41:40;17.40;63.10
13389;DHT22;6764;53.250;10.410;2023-05-16T12:46:40;17.50;63.90
13389;DHT22;6764;53.250;10.410;2023-05-16T12:49:07;17.60;65.10
13389;DHT22;6764;53.250;10.410;2023-05-16T12:51:32;17.70;64.30
13389;DHT22;6764;53.250;10.410;2023-05-16T12:54:07;17.60;64.40
13389;DHT22;6764;53.250;10.410;2023-05-16T12:56:33;17.50;65.30
13389;DHT22;6764;53.250;10.410;2023-05-16T12:58:59;17.50;65.90
13389;DHT22;6764;53.250;10.410;2023-05-16T13:01:25;17.40;69.00
13389;DHT22;6764;53.250;10.410;2023-05-16T13:03:50;17.20;67.90
13389;DHT22;6764;53.250;10.410;2023-05-16T13:06:16;17.10;67.00
13389;DHT22;6764;53.250;10.410;2023-05-16T13:08:41;16.90;67.90
13389;DHT22;6764;53.250;10.410;2023-05-16T13:11:07;16.90;67.90
13389;DHT22;6764;53.250;10.410;2023-05-16T13:13:33;16.80;67.00
13389;DHT22;6764;53.250;10.410;2023-05-16T13:15:58;16.60;65.20
13389;DHT22;6764;53.250;10.410;2023-05-16T13:18:24;16.70;64.60
13389;DHT22;6764;53.250;10.410;2023-05-16T13:20:49;16.80;64.20
13389;DHT22;6764;53.250;10.410;2023-05-16T13:23:15;16.90;62.10
13389;DHT22;6764;53.250;10.410;2023-05-16T13:25:41;16.70;60.10
13389;DHT22;6764;53.250;10.410;2023-05-16T13:28:06;16.70;60.20
13389;DHT22;6764;53.250;10.410;2023-05-16T13:30:32;16.70;60.10
13389;DHT22;6764;53.250;10.410;2023-05-16T13:32:58;16.80;61.40
13389;DHT22;6764;53.250;10.410;2023-05-16T13:35:24;16.80;63.20
13389;DHT22;6764;53.250;10.410;2023-05-16T13:37:52;17.00;63.30
13389;DHT22;6764;53.250;10.410;2023-05-16T13:40:17;16.80;64.00
13389;DHT22;6764;53.250;10.410;2023-05-16T13:42:43;16.60;63.50
13389;DHT22;6764;53.250;10.410;2023-05-16T13:45:08;16.70;63.50
13389;DHT22;6764;53.250;10.410;2023-05-16T13:47:34;16.80;60.20
13389;DHT22;6764;53.250;10.410;2023-05-16T13:50:00;16.70;60.90
13389;DHT22;6764;53.250;10.410;2023-05-16T13:52:30;16.90;60.10
13389;DHT22;6764;53.250;10.410;2023-05-16T13:54:56;17.10;60.50
13389;DHT22;6764;53.250;10.410;2023-05-16T13:57:21;17.10;61.70
13389;DHT22;6764;53.250;10.410;2023-05-16T13:59:47;17.20;61.90
13389;DHT22;6764;53.250;10.410;2023-05-16T14:02:13;17.20;63.20
13389;DHT22;6764;53.250;10.410;2023-05-16T14:04:41;17.10;63.20
13389;DHT22;6764;53.250;10.410;2023-05-16T14:07:07;17.00;64.10
13389;DHT22;6764;53.250;10.410;2023-05-16T14:09:33;16.90;64.60
13389;DHT22;6764;53.250;10.410;2023-05-16T14:12:05;16.80;65.10
13389;DHT22;6764;53.250;10.410;2023-05-16T14:14:32;16.70;66.30
13389;DHT22;6764;53.250;10.410;2023-05-16T14:16:58;16.70;67.30
13389;DHT22;6764;53.250;10.410;2023-05-16T14:19:24;16.70;67.10
13389;DHT22;6764;53.250;10.410;2023-05-16T14:21:50;16.50;66.70
13389;DHT22;6764;53.250;10.410;2023-05-16T14:24:18;16.40;67.70
13389;DHT22;6764;53.250;10.410;2023-05-16T14:26:44;16.50;65.90
13389;DHT22;6764;53.250;10.410;2023-05-16T14:29:09;16.40;64.40
13389;DHT22;6764;53.250;10.410;2023-05-16T14:31:35;16.30;65.40
13389;DHT22;6764;53.250;10.410;2023-05-16T14:34:01;16.40;65.70
13389;DHT22;6764;53.250;10.410;2023-05-16T14:36:27;16.60;69.70
13389;DHT22;6764;53.250;10.410;2023-05-16T14:38:53;16.60;69.70
13389;DHT22;6764;53.250;10.410;2023-05-16T14:41:18;16.40;69.60
13389;DHT22;6764;53.250;10.410;2023-05-16T14:43:44;16.20;70.90
13389;DHT22;6764;53.250;10.410;2023-05-16T14:46:10;16.10;71.20
13389;DHT22;6764;53.250;10.410;2023-05-16T14:48:36;16.00;70.70
13389;DHT22;6764;53.250;10.410;2023-05-16T14:51:02;15.80;70.80
13389;DHT22;6764;53.250;10.410;2023-05-16T14:53:29;15.50;72.00
13389;DHT22;6764;53.250;10.410;2023-05-16T14:55:55;15.40;71.10
13389;DHT22;6764;53.250;10.410;2023-05-16T14:58:20;15.20;71.30
13389;DHT22;6764;53.250;10.410;2023-05-16T15:00:46;15.20;71.60
13389;DHT22;6764;53.250;10.410;2023-05-16T15:03:11;15.20;71.90
13389;DHT22;6764;53.250;10.410;2023-05-16T15:05:37;15.20;71.70
13389;DHT22;6764;53.250;10.410;2023-05-16T15:08:03;15.10;69.70
13389;DHT22;6764;53.250;10.410;2023-05-16T15:10:28;14.90;67.30
13389;DHT22;6764;53.250;10.410;2023-05-16T15:12:54;14.80;67.20
13389;DHT22;6764;53.250;10.410;2023-05-16T15:15:20;15.00;67.70
13389;DHT22;6764;53.250;10.410;2023-05-16T15:17:45;15.00;67.90
13389;DHT22;6764;53.250;10.410;2023-05-16T15:20:11;15.10;68.10
13389;DHT22;6764;53.250;10.410;2023-05-16T15:22:40;15.20;67.70
13389;DHT22;6764;53.250;10.410;2023-05-16T15:25:06;15.40;67.20
13389;DHT22;6764;53.250;10.410;2023-05-16T15:27:32;15.40;66.70
13389;DHT22;6764;53.250;10.410;2023-05-16T15:29:59;15.50;66.40
13389;DHT22;6764;53.250;10.410;2023-05-16T15:32:25;15.50;66.20
13389;DHT22;6764;53.250;10.410;2023-05-16T15:34:51;15.50;67.20
13389;DHT22;6764;53.250;10.410;2023-05-16T15:37:16;15.50;67.00
13389;DHT22;6764;53.250;10.410;2023-05-16T15:39:42;15.50;67.20
13389;DHT22;6764;53.250;10.410;2023-05-16T15:42:08;15.60;67.60
13389;DHT22;6764;53.250;10.410;2023-05-16T15:44:35;15.70;67.90
13389;DHT22;6764;53.250;10.410;2023-05-16T15:47:01;15.80;67.80
13389;DHT22;6764;53.250;10.410;2023-05-16T15:49:27;15.70;68.50
13389;DHT22;6764;53.250;10.410;2023-05-16T15:51:53;15.60;68.60
13389;DHT22;6764;53.250;10.410;2023-05-16T15:54:19;15.50;70.10
13389;DHT22;6764;53.250;10.410;2023-05-16T15:56:44;15.60;70.10
13389;DHT22;6764;53.250;10.410;2023-05-16T15:59:10;15.60;70.40
13389;DHT22;6764;53.250;10.410;2023-05-16T16:01:36;15.50;69.80
13389;DHT22;6764;53.250;10.410;2023-05-16T16:04:01;15.50;70.00
13389;DHT22;6764;53.250;10.410;2023-05-16T16:06:27;15.50;69.70
13389;DHT22;6764;53.250;10.410;2023-05-16T16:08:53;15.50;69.10
13389;DHT22;6764;53.250;10.410;2023-05-16T16:11:18;15.70;68.50